EYSA/SQQ METAR and TAF weather

Enter ICAO airport designator
Station Type Date Time Source
EYSA METAR 2020/08/11 19:20 UTC NOAA

EYSA 111920Z 01007KT CAVOK 15/09 Q1022 BLU NOSIG


Station Type Date Time Source
EYSA Decoded METAR 2020/08/11 19:20 UTC NOAA

Siauliai Intl./Mil., Lithuania (EYSA) 55-53-38N 023-23-42E
Aug 11, 2020 - 03:20 PM EDT / 2020.08.11 1920 UTC
Wind: from the N (010 degrees) at 8 MPH (7 KT):0
Visibility: greater than 7 mile(s):0
Temperature: 59 F (15 C)
Dew Point: 48 F (9 C)
Relative Humidity: 67%
Pressure (altimeter): 30.18 in. Hg (1022 hPa)
ob: EYSA 111920Z 01007KT CAVOK 15/09 Q1022 BLU NOSIG
cycle: 19

Station Type Date Time Source
EYSA TAF 2020/07/03 18:42 UTC NOAA

TAF COR TAF COR EYSA 031708Z 0318/0418 VRB05KT 6000 SCT010 BKN015
TEMPO 0318/0321 SCT005 BKN010
TEMPO 0321/0403 1500 BR BKN005

Example: see airport list